sensor_id;sensor_type;location;lat;lon;timestamp;temperature;humidity
10885;DHT22;5495;53.252;10.390;2022-11-15T00:02:06;7.10;99.90
10885;DHT22;5495;53.252;10.390;2022-11-15T00:04:33;7.20;99.90
10885;DHT22;5495;53.252;10.390;2022-11-15T00:07:01;7.10;99.90
10885;DHT22;5495;53.252;10.390;2022-11-15T00:09:28;7.10;99.90
10885;DHT22;5495;53.252;10.390;2022-11-15T00:11:55;7.10;99.90
10885;DHT22;5495;53.252;10.390;2022-11-15T00:14:22;7.00;99.90
10885;DHT22;5495;53.252;10.390;2022-11-15T00:16:49;7.00;99.90
10885;DHT22;5495;53.252;10.390;2022-11-15T00:19:16;7.10;99.90
10885;DHT22;5495;53.252;10.390;2022-11-15T00:21:43;7.10;99.90
10885;DHT22;5495;53.252;10.390;2022-11-15T00:24:11;7.10;99.90
10885;DHT22;5495;53.252;10.390;2022-11-15T00:26:38;7.00;99.90
10885;DHT22;5495;53.252;10.390;2022-11-15T00:29:04;7.00;99.90
10885;DHT22;5495;53.252;10.390;2022-11-15T00:31:31;7.00;99.90
10885;DHT22;5495;53.252;10.390;2022-11-15T00:33:58;7.10;99.90
10885;DHT22;5495;53.252;10.390;2022-11-15T00:36:25;7.10;99.90
10885;DHT22;5495;53.252;10.390;2022-11-15T00:38:52;7.20;99.90
10885;DHT22;5495;53.252;10.390;2022-11-15T00:41:20;7.20;99.90
10885;DHT22;5495;53.252;10.390;2022-11-15T00:43:47;7.20;99.90
10885;DHT22;5495;53.252;10.390;2022-11-15T00:46:14;7.20;99.90
10885;DHT22;5495;53.252;10.390;2022-11-15T00:48:41;7.20;99.90
10885;DHT22;5495;53.252;10.390;2022-11-15T00:51:08;7.20;99.90
10885;DHT22;5495;53.252;10.390;2022-11-15T00:53:35;7.20;99.90
10885;DHT22;5495;53.252;10.390;2022-11-15T00:56:02;7.20;99.90
10885;DHT22;5495;53.252;10.390;2022-11-15T00:58:30;7.00;99.90
10885;DHT22;5495;53.252;10.390;2022-11-15T01:01:04;7.10;99.90
10885;DHT22;5495;53.252;10.390;2022-11-15T01:03:32;7.00;99.90
10885;DHT22;5495;53.252;10.390;2022-11-15T01:05:59;6.90;99.90
10885;DHT22;5495;53.252;10.390;2022-11-15T01:08:27;6.90;99.90
10885;DHT22;5495;53.252;10.390;2022-11-15T01:10:53;6.90;99.90
10885;DHT22;5495;53.252;10.390;2022-11-15T01:13:20;6.90;99.90
10885;DHT22;5495;53.252;10.390;2022-11-15T01:15:48;6.90;99.90
10885;DHT22;5495;53.252;10.390;2022-11-15T01:18:15;6.90;99.90
10885;DHT22;5495;53.252;10.390;2022-11-15T01:20:42;6.90;99.90
10885;DHT22;5495;53.252;10.390;2022-11-15T01:23:09;6.80;99.90
10885;DHT22;5495;53.252;10.390;2022-11-15T01:25:37;6.80;99.90
10885;DHT22;5495;53.252;10.390;2022-11-15T01:28:04;6.70;99.90
10885;DHT22;5495;53.252;10.390;2022-11-15T01:30:31;6.50;99.90
10885;DHT22;5495;53.252;10.390;2022-11-15T01:32:59;6.50;99.90
10885;DHT22;5495;53.252;10.390;2022-11-15T01:35:25;6.30;99.90
10885;DHT22;5495;53.252;10.390;2022-11-15T01:37:52;6.30;99.90
10885;DHT22;5495;53.252;10.390;2022-11-15T01:40:19;6.20;99.90
10885;DHT22;5495;53.252;10.390;2022-11-15T01:42:46;6.20;99.90
10885;DHT22;5495;53.252;10.390;2022-11-15T01:45:14;6.10;99.90
10885;DHT22;5495;53.252;10.390;2022-11-15T01:47:44;6.20;99.90
10885;DHT22;5495;53.252;10.390;2022-11-15T01:50:16;6.20;99.90
10885;DHT22;5495;53.252;10.390;2022-11-15T01:52:43;6.10;99.90
10885;DHT22;5495;53.252;10.390;2022-11-15T01:55:13;6.00;99.90
10885;DHT22;5495;53.252;10.390;2022-11-15T01:57:42;5.90;99.90
10885;DHT22;5495;53.252;10.390;2022-11-15T02:00:11;5.80;99.90
10885;DHT22;5495;53.252;10.390;2022-11-15T02:02:38;5.70;99.90
10885;DHT22;5495;53.252;10.390;2022-11-15T02:05:06;5.70;99.90
10885;DHT22;5495;53.252;10.390;2022-11-15T02:07:37;5.60;99.90
10885;DHT22;5495;53.252;10.390;2022-11-15T02:10:07;5.60;99.90
10885;DHT22;5495;53.252;10.390;2022-11-15T02:12:34;5.40;99.90
10885;DHT22;5495;53.252;10.390;2022-11-15T02:15:03;5.40;99.90
10885;DHT22;5495;53.252;10.390;2022-11-15T02:17:49;5.30;99.90
10885;DHT22;5495;53.252;10.390;2022-11-15T02:20:46;5.40;99.90
10885;DHT22;5495;53.252;10.390;2022-11-15T02:26:56;5.30;99.90
10885;DHT22;5495;53.252;10.390;2022-11-15T02:29:44;5.20;99.90
10885;DHT22;5495;53.252;10.390;2022-11-15T02:32:18;5.20;99.90
10885;DHT22;5495;53.252;10.390;2022-11-15T02:34:51;5.20;99.90
10885;DHT22;5495;53.252;10.390;2022-11-15T02:37:29;5.20;99.90
10885;DHT22;5495;53.252;10.390;2022-11-15T02:40:02;5.30;99.90
10885;DHT22;5495;53.252;10.390;2022-11-15T02:42:33;5.20;99.90
10885;DHT22;5495;53.252;10.390;2022-11-15T02:45:24;5.10;99.90
10885;DHT22;5495;53.252;10.390;2022-11-15T02:47:55;5.10;99.90
10885;DHT22;5495;53.252;10.390;2022-11-15T02:50:25;5.20;99.90
10885;DHT22;5495;53.252;10.390;2022-11-15T02:52:57;5.20;99.90
10885;DHT22;5495;53.252;10.390;2022-11-15T02:58:02;5.20;99.90
10885;DHT22;5495;53.252;10.390;2022-11-15T03:00:33;5.30;99.90
10885;DHT22;5495;53.252;10.390;2022-11-15T03:03:14;5.40;99.90
10885;DHT22;5495;53.252;10.390;2022-11-15T03:05:51;5.60;99.90
10885;DHT22;5495;53.252;10.390;2022-11-15T03:08:25;5.70;99.90
10885;DHT22;5495;53.252;10.390;2022-11-15T03:11:03;5.80;99.90
10885;DHT22;5495;53.252;10.390;2022-11-15T03:13:37;5.90;99.90
10885;DHT22;5495;53.252;10.390;2022-11-15T03:16:10;6.00;99.90
10885;DHT22;5495;53.252;10.390;2022-11-15T03:18:45;5.90;99.90
10885;DHT22;5495;53.252;10.390;2022-11-15T03:21:14;5.90;99.90
10885;DHT22;5495;53.252;10.390;2022-11-15T03:23:43;5.90;99.90
10885;DHT22;5495;53.252;10.390;2022-11-15T03:26:13;5.70;99.90
10885;DHT22;5495;53.252;10.390;2022-11-15T03:28:44;5.60;99.90
10885;DHT22;5495;53.252;10.390;2022-11-15T03:31:14;5.50;99.90
10885;DHT22;5495;53.252;10.390;2022-11-15T03:34:05;5.50;99.90
10885;DHT22;5495;53.252;10.390;2022-11-15T03:36:35;5.30;99.90
10885;DHT22;5495;53.252;10.390;2022-11-15T03:39:06;5.50;99.90
10885;DHT22;5495;53.252;10.390;2022-11-15T03:41:37;5.20;99.90
10885;DHT22;5495;53.252;10.390;2022-11-15T03:44:11;5.20;99.90
10885;DHT22;5495;53.252;10.390;2022-11-15T03:46:46;5.20;99.90
10885;DHT22;5495;53.252;10.390;2022-11-15T03:49:19;5.10;99.90
10885;DHT22;5495;53.252;10.390;2022-11-15T03:51:47;5.10;99.90
10885;DHT22;5495;53.252;10.390;2022-11-15T03:54:13;5.10;99.90
10885;DHT22;5495;53.252;10.390;2022-11-15T03:56:40;5.10;99.90
10885;DHT22;5495;53.252;10.390;2022-11-15T04:01:34;5.00;99.90
10885;DHT22;5495;53.252;10.390;2022-11-15T04:04:01;5.00;99.90
10885;DHT22;5495;53.252;10.390;2022-11-15T04:06:28;5.10;99.90
10885;DHT22;5495;53.252;10.390;2022-11-15T04:08:55;5.10;99.90
10885;DHT22;5495;53.252;10.390;2022-11-15T04:11:22;5.20;99.90
10885;DHT22;5495;53.252;10.390;2022-11-15T04:13:49;5.20;99.90
10885;DHT22;5495;53.252;10.390;2022-11-15T04:16:17;5.30;99.90
10885;DHT22;5495;53.252;10.390;2022-11-15T04:18:44;5.30;99.90
10885;DHT22;5495;53.252;10.390;2022-11-15T04:21:31;5.40;99.90
10885;DHT22;5495;53.252;10.390;2022-11-15T04:24:16;5.40;99.90
10885;DHT22;5495;53.252;10.390;2022-11-15T04:26:43;5.40;99.90
10885;DHT22;5495;53.252;10.390;2022-11-15T04:29:10;5.50;99.90
10885;DHT22;5495;53.252;10.390;2022-11-15T04:31:55;5.60;99.90
10885;DHT22;5495;53.252;10.390;2022-11-15T04:34:22;5.60;99.90
10885;DHT22;5495;53.252;10.390;2022-11-15T04:36:50;5.50;99.90
10885;DHT22;5495;53.252;10.390;2022-11-15T04:39:34;5.50;99.90
10885;DHT22;5495;53.252;10.390;2022-11-15T04:42:02;5.40;99.90
10885;DHT22;5495;53.252;10.390;2022-11-15T04:44:28;5.40;99.90
10885;DHT22;5495;53.252;10.390;2022-11-15T04:46:56;5.30;99.90
10885;DHT22;5495;53.252;10.390;2022-11-15T04:49:23;5.20;99.90
10885;DHT22;5495;53.252;10.390;2022-11-15T04:51:50;5.20;99.90
10885;DHT22;5495;53.252;10.390;2022-11-15T04:54:17;5.10;99.90
10885;DHT22;5495;53.252;10.390;2022-11-15T04:56:44;5.10;99.90
10885;DHT22;5495;53.252;10.390;2022-11-15T04:59:11;5.10;99.90
10885;DHT22;5495;53.252;10.390;2022-11-15T05:01:38;5.10;99.90
10885;DHT22;5495;53.252;10.390;2022-11-15T05:04:05;5.20;99.90
10885;DHT22;5495;53.252;10.390;2022-11-15T05:06:48;5.20;99.90
10885;DHT22;5495;53.252;10.390;2022-11-15T05:09:17;5.10;99.90
10885;DHT22;5495;53.252;10.390;2022-11-15T05:11:46;5.10;99.90
10885;DHT22;5495;53.252;10.390;2022-11-15T05:14:14;5.00;99.90
10885;DHT22;5495;53.252;10.390;2022-11-15T05:16:41;5.00;99.90
10885;DHT22;5495;53.252;10.390;2022-11-15T05:19:08;4.90;99.90
10885;DHT22;5495;53.252;10.390;2022-11-15T05:21:35;4.90;99.90
10885;DHT22;5495;53.252;10.390;2022-11-15T05:24:02;4.90;99.90
10885;DHT22;5495;53.252;10.390;2022-11-15T05:26:30;4.90;99.90
10885;DHT22;5495;53.252;10.390;2022-11-15T05:28:58;4.90;99.90
10885;DHT22;5495;53.252;10.390;2022-11-15T05:31:26;4.90;99.90
10885;DHT22;5495;53.252;10.390;2022-11-15T05:33:55;5.00;99.90
10885;DHT22;5495;53.252;10.390;2022-11-15T05:36:29;5.00;99.90
10885;DHT22;5495;53.252;10.390;2022-11-15T05:38:58;5.10;99.90
10885;DHT22;5495;53.252;10.390;2022-11-15T05:41:29;5.10;99.90
10885;DHT22;5495;53.252;10.390;2022-11-15T05:43:58;5.20;99.90
10885;DHT22;5495;53.252;10.390;2022-11-15T05:46:27;5.20;99.90
10885;DHT22;5495;53.252;10.390;2022-11-15T05:48:55;5.30;99.90
10885;DHT22;5495;53.252;10.390;2022-11-15T05:51:24;5.30;99.90
10885;DHT22;5495;53.252;10.390;2022-11-15T05:53:52;5.40;99.90
10885;DHT22;5495;53.252;10.390;2022-11-15T05:56:20;5.50;99.90
10885;DHT22;5495;53.252;10.390;2022-11-15T05:58:49;5.50;99.90
10885;DHT22;5495;53.252;10.390;2022-11-15T06:01:17;5.60;99.90
10885;DHT22;5495;53.252;10.390;2022-11-15T06:03:44;5.60;99.90
10885;DHT22;5495;53.252;10.390;2022-11-15T06:06:11;5.60;99.90
10885;DHT22;5495;53.252;10.390;2022-11-15T06:08:38;5.60;99.90
10885;DHT22;5495;53.252;10.390;2022-11-15T06:11:06;5.70;99.90
10885;DHT22;5495;53.252;10.390;2022-11-15T06:13:33;5.80;99.90
10885;DHT22;5495;53.252;10.390;2022-11-15T06:16:00;5.80;99.90
10885;DHT22;5495;53.252;10.390;2022-11-15T06:18:31;5.80;99.90
10885;DHT22;5495;53.252;10.390;2022-11-15T06:20:59;5.90;99.90
10885;DHT22;5495;53.252;10.390;2022-11-15T06:23:26;5.80;99.90
10885;DHT22;5495;53.252;10.390;2022-11-15T06:25:53;6.10;99.90
10885;DHT22;5495;53.252;10.390;2022-11-15T06:28:20;6.20;99.90
10885;DHT22;5495;53.252;10.390;2022-11-15T06:30:47;6.30;99.90
10885;DHT22;5495;53.252;10.390;2022-11-15T06:33:14;6.40;99.90
10885;DHT22;5495;53.252;10.390;2022-11-15T06:35:41;6.40;99.90
10885;DHT22;5495;53.252;10.390;2022-11-15T06:38:10;6.50;99.90
10885;DHT22;5495;53.252;10.390;2022-11-15T06:40:38;6.60;99.90
10885;DHT22;5495;53.252;10.390;2022-11-15T06:43:06;6.70;99.90
10885;DHT22;5495;53.252;10.390;2022-11-15T06:45:33;6.70;99.90
10885;DHT22;5495;53.252;10.390;2022-11-15T06:48:00;6.80;99.90
10885;DHT22;5495;53.252;10.390;2022-11-15T06:50:27;6.80;99.90
10885;DHT22;5495;53.252;10.390;2022-11-15T06:53:04;6.60;99.90
10885;DHT22;5495;53.252;10.390;2022-11-15T06:55:31;6.80;99.90
10885;DHT22;5495;53.252;10.390;2022-11-15T06:57:58;6.90;99.90
10885;DHT22;5495;53.252;10.390;2022-11-15T07:00:26;6.60;99.90
10885;DHT22;5495;53.252;10.390;2022-11-15T07:02:53;6.90;99.90
10885;DHT22;5495;53.252;10.390;2022-11-15T07:05:20;6.90;99.90
10885;DHT22;5495;53.252;10.390;2022-11-15T07:07:52;6.90;99.90
10885;DHT22;5495;53.252;10.390;2022-11-15T07:10:20;6.90;99.90
10885;DHT22;5495;53.252;10.390;2022-11-15T07:12:47;6.90;99.90
10885;DHT22;5495;53.252;10.390;2022-11-15T07:15:15;7.00;99.90
10885;DHT22;5495;53.252;10.390;2022-11-15T07:17:42;7.00;99.90
10885;DHT22;5495;53.252;10.390;2022-11-15T07:20:10;7.00;99.90
10885;DHT22;5495;53.252;10.390;2022-11-15T07:22:37;7.10;99.90
10885;DHT22;5495;53.252;10.390;2022-11-15T07:25:04;7.10;99.90
10885;DHT22;5495;53.252;10.390;2022-11-15T07:27:32;7.20;99.90
10885;DHT22;5495;53.252;10.390;2022-11-15T07:29:58;7.20;99.90
10885;DHT22;5495;53.252;10.390;2022-11-15T07:32:26;7.20;99.90
10885;DHT22;5495;53.252;10.390;2022-11-15T07:34:53;7.30;99.90
10885;DHT22;5495;53.252;10.390;2022-11-15T07:37:19;7.30;99.90
10885;DHT22;5495;53.252;10.390;2022-11-15T07:39:46;7.40;99.90
10885;DHT22;5495;53.252;10.390;2022-11-15T07:42:13;7.40;99.90
10885;DHT22;5495;53.252;10.390;2022-11-15T07:45:02;7.50;99.90
10885;DHT22;5495;53.252;10.390;2022-11-15T07:47:29;7.50;99.90
10885;DHT22;5495;53.252;10.390;2022-11-15T07:49:56;7.50;99.90
10885;DHT22;5495;53.252;10.390;2022-11-15T07:52:26;7.60;99.90
10885;DHT22;5495;53.252;10.390;2022-11-15T07:54:53;7.50;99.90
10885;DHT22;5495;53.252;10.390;2022-11-15T07:57:20;7.60;99.90
10885;DHT22;5495;53.252;10.390;2022-11-15T07:59:47;7.70;99.90
10885;DHT22;5495;53.252;10.390;2022-11-15T08:02:15;7.70;99.90
10885;DHT22;5495;53.252;10.390;2022-11-15T08:04:43;7.70;99.90
10885;DHT22;5495;53.252;10.390;2022-11-15T08:07:10;7.70;99.90
10885;DHT22;5495;53.252;10.390;2022-11-15T08:09:37;7.90;99.90
10885;DHT22;5495;53.252;10.390;2022-11-15T08:12:04;7.80;99.90
10885;DHT22;5495;53.252;10.390;2022-11-15T08:14:31;7.80;99.90
10885;DHT22;5495;53.252;10.390;2022-11-15T08:16:58;8.00;99.90
10885;DHT22;5495;53.252;10.390;2022-11-15T08:19:25;8.00;99.90
10885;DHT22;5495;53.252;10.390;2022-11-15T08:21:52;8.10;99.90
10885;DHT22;5495;53.252;10.390;2022-11-15T08:24:19;8.10;99.90
10885;DHT22;5495;53.252;10.390;2022-11-15T08:26:47;8.20;99.90
10885;DHT22;5495;53.252;10.390;2022-11-15T08:29:14;8.20;99.90
10885;DHT22;5495;53.252;10.390;2022-11-15T08:31:41;8.30;99.90
10885;DHT22;5495;53.252;10.390;2022-11-15T08:34:08;8.30;99.90
10885;DHT22;5495;53.252;10.390;2022-11-15T08:36:35;8.30;99.90
10885;DHT22;5495;53.252;10.390;2022-11-15T08:39:03;8.30;99.90
10885;DHT22;5495;53.252;10.390;2022-11-15T08:41:34;8.40;99.90
10885;DHT22;5495;53.252;10.390;2022-11-15T08:44:05;8.40;99.90
10885;DHT22;5495;53.252;10.390;2022-11-15T08:46:33;8.50;99.90
10885;DHT22;5495;53.252;10.390;2022-11-15T08:49:00;8.50;99.90
10885;DHT22;5495;53.252;10.390;2022-11-15T08:51:27;8.50;99.90
10885;DHT22;5495;53.252;10.390;2022-11-15T08:53:55;8.50;99.90
10885;DHT22;5495;53.252;10.390;2022-11-15T08:56:22;8.50;99.90
10885;DHT22;5495;53.252;10.390;2022-11-15T08:58:49;8.50;99.90
10885;DHT22;5495;53.252;10.390;2022-11-15T09:01:18;8.50;99.90
10885;DHT22;5495;53.252;10.390;2022-11-15T09:03:48;8.60;99.90
10885;DHT22;5495;53.252;10.390;2022-11-15T09:06:15;8.60;99.90
10885;DHT22;5495;53.252;10.390;2022-11-15T09:08:42;8.70;99.90
10885;DHT22;5495;53.252;10.390;2022-11-15T09:11:10;8.70;99.90
10885;DHT22;5495;53.252;10.390;2022-11-15T09:13:38;8.70;99.90
10885;DHT22;5495;53.252;10.390;2022-11-15T09:16:06;8.80;99.90
10885;DHT22;5495;53.252;10.390;2022-11-15T09:18:33;8.80;99.90
10885;DHT22;5495;53.252;10.390;2022-11-15T09:21:00;8.80;99.90
10885;DHT22;5495;53.252;10.390;2022-11-15T09:23:28;8.90;99.90
10885;DHT22;5495;53.252;10.390;2022-11-15T09:25:59;8.90;99.90
10885;DHT22;5495;53.252;10.390;2022-11-15T09:28:27;8.90;99.90
10885;DHT22;5495;53.252;10.390;2022-11-15T09:30:56;9.00;99.90
10885;DHT22;5495;53.252;10.390;2022-11-15T09:33:24;9.10;99.90
10885;DHT22;5495;53.252;10.390;2022-11-15T09:35:53;9.00;99.90
10885;DHT22;5495;53.252;10.390;2022-11-15T09:38:20;9.10;99.90
10885;DHT22;5495;53.252;10.390;2022-11-15T09:40:51;9.20;99.90
10885;DHT22;5495;53.252;10.390;2022-11-15T09:43:30;9.30;99.90
10885;DHT22;5495;53.252;10.390;2022-11-15T09:46:08;9.30;99.90
10885;DHT22;5495;53.252;10.390;2022-11-15T09:48:51;9.40;99.90
10885;DHT22;5495;53.252;10.390;2022-11-15T09:51:25;9.50;99.90
10885;DHT22;5495;53.252;10.390;2022-11-15T09:54:09;9.70;99.90
10885;DHT22;5495;53.252;10.390;2022-11-15T09:56:39;9.70;99.90
10885;DHT22;5495;53.252;10.390;2022-11-15T10:02:12;9.70;99.90
10885;DHT22;5495;53.252;10.390;2022-11-15T10:04:42;9.70;99.90
10885;DHT22;5495;53.252;10.390;2022-11-15T10:07:18;9.70;99.90
10885;DHT22;5495;53.252;10.390;2022-11-15T10:09:52;9.60;99.90
10885;DHT22;5495;53.252;10.390;2022-11-15T10:12:19;9.60;99.90
10885;DHT22;5495;53.252;10.390;2022-11-15T10:14:50;9.60;99.90
10885;DHT22;5495;53.252;10.390;2022-11-15T10:17:37;9.60;99.90
10885;DHT22;5495;53.252;10.390;2022-11-15T10:20:12;9.60;99.90
10885;DHT22;5495;53.252;10.390;2022-11-15T10:22:44;9.70;99.90
10885;DHT22;5495;53.252;10.390;2022-11-15T10:25:19;9.70;99.90
10885;DHT22;5495;53.252;10.390;2022-11-15T10:27:56;9.80;99.90
10885;DHT22;5495;53.252;10.390;2022-11-15T10:30:29;9.50;99.90
10885;DHT22;5495;53.252;10.390;2022-11-15T10:32:57;9.80;99.90
10885;DHT22;5495;53.252;10.390;2022-11-15T10:35:27;9.80;99.90
10885;DHT22;5495;53.252;10.390;2022-11-15T10:38:04;9.90;99.90
10885;DHT22;5495;53.252;10.390;2022-11-15T10:40:32;9.90;99.90
10885;DHT22;5495;53.252;10.390;2022-11-15T10:43:10;10.00;99.90
10885;DHT22;5495;53.252;10.390;2022-11-15T10:45:43;10.10;99.90
10885;DHT22;5495;53.252;10.390;2022-11-15T10:48:26;10.20;99.90
10885;DHT22;5495;53.252;10.390;2022-11-15T10:50:54;10.30;99.90
10885;DHT22;5495;53.252;10.390;2022-11-15T10:53:25;10.50;99.90
10885;DHT22;5495;53.252;10.390;2022-11-15T10:55:56;10.60;99.90
10885;DHT22;5495;53.252;10.390;2022-11-15T10:58:37;10.70;99.90
10885;DHT22;5495;53.252;10.390;2022-11-15T11:01:10;10.80;99.90
10885;DHT22;5495;53.252;10.390;2022-11-15T11:03:38;10.90;99.90
10885;DHT22;5495;53.252;10.390;2022-11-15T11:06:08;11.00;99.90
10885;DHT22;5495;53.252;10.390;2022-11-15T11:08:35;11.10;99.90
10885;DHT22;5495;53.252;10.390;2022-11-15T11:11:03;11.10;99.90
10885;DHT22;5495;53.252;10.390;2022-11-15T11:13:34;11.10;99.90
10885;DHT22;5495;53.252;10.390;2022-11-15T11:22:20;11.10;99.90
10885;DHT22;5495;53.252;10.390;2022-11-15T11:24:58;11.10;99.90
10885;DHT22;5495;53.252;10.390;2022-11-15T11:27:43;10.90;99.90
10885;DHT22;5495;53.252;10.390;2022-11-15T11:30:21;11.00;99.90
10885;DHT22;5495;53.252;10.390;2022-11-15T11:33:05;11.00;99.90
10885;DHT22;5495;53.252;10.390;2022-11-15T11:35:44;10.90;99.90
10885;DHT22;5495;53.252;10.390;2022-11-15T11:38:21;11.30;99.90
10885;DHT22;5495;53.252;10.390;2022-11-15T11:41:00;11.60;99.90
10885;DHT22;5495;53.252;10.390;2022-11-15T11:43:36;11.80;99.90
10885;DHT22;5495;53.252;10.390;2022-11-15T11:46:25;12.10;99.90
10885;DHT22;5495;53.252;10.390;2022-11-15T11:48:58;12.60;99.90
10885;DHT22;5495;53.252;10.390;2022-11-15T11:51:32;12.90;99.90
10885;DHT22;5495;53.252;10.390;2022-11-15T11:54:05;12.90;99.90
10885;DHT22;5495;53.252;10.390;2022-11-15T11:56:39;13.00;99.90
10885;DHT22;5495;53.252;10.390;2022-11-15T11:59:11;13.10;99.90
10885;DHT22;5495;53.252;10.390;2022-11-15T12:01:42;13.10;99.90
10885;DHT22;5495;53.252;10.390;2022-11-15T12:04:14;13.10;99.90
10885;DHT22;5495;53.252;10.390;2022-11-15T12:06:47;13.20;99.90
10885;DHT22;5495;53.252;10.390;2022-11-15T12:09:17;13.10;99.90
10885;DHT22;5495;53.252;10.390;2022-11-15T12:11:52;13.10;99.90
10885;DHT22;5495;53.252;10.390;2022-11-15T12:14:30;13.00;99.90
10885;DHT22;5495;53.252;10.390;2022-11-15T12:17:01;13.00;99.90
10885;DHT22;5495;53.252;10.390;2022-11-15T12:19:34;12.90;99.90
10885;DHT22;5495;53.252;10.390;2022-11-15T12:22:04;12.90;99.90
10885;DHT22;5495;53.252;10.390;2022-11-15T12:24:40;12.90;99.90
10885;DHT22;5495;53.252;10.390;2022-11-15T12:27:15;12.70;99.90
10885;DHT22;5495;53.252;10.390;2022-11-15T12:29:46;12.80;99.90
10885;DHT22;5495;53.252;10.390;2022-11-15T12:32:23;12.70;99.90
10885;DHT22;5495;53.252;10.390;2022-11-15T12:34:52;12.70;99.90
10885;DHT22;5495;53.252;10.390;2022-11-15T12:40:22;12.60;99.90
10885;DHT22;5495;53.252;10.390;2022-11-15T12:43:04;12.60;99.90
10885;DHT22;5495;53.252;10.390;2022-11-15T12:45:33;12.50;99.90
10885;DHT22;5495;53.252;10.390;2022-11-15T12:51:05;12.50;99.90
10885;DHT22;5495;53.252;10.390;2022-11-15T12:53:33;12.40;99.90
10885;DHT22;5495;53.252;10.390;2022-11-15T12:56:23;12.40;99.90
10885;DHT22;5495;53.252;10.390;2022-11-15T12:58:55;12.40;99.90
10885;DHT22;5495;53.252;10.390;2022-11-15T13:01:57;12.30;99.90
10885;DHT22;5495;53.252;10.390;2022-11-15T13:04:27;12.30;99.90
10885;DHT22;5495;53.252;10.390;2022-11-15T13:06:57;12.30;99.90
10885;DHT22;5495;53.252;10.390;2022-11-15T13:09:53;12.20;99.90
10885;DHT22;5495;53.252;10.390;2022-11-15T13:12:48;12.30;99.90
10885;DHT22;5495;53.252;10.390;2022-11-15T13:15:55;12.30;99.90
10885;DHT22;5495;53.252;10.390;2022-11-15T13:18:34;12.20;99.90
10885;DHT22;5495;53.252;10.390;2022-11-15T13:21:16;12.20;99.90
10885;DHT22;5495;53.252;10.390;2022-11-15T13:24:03;12.20;99.90
10885;DHT22;5495;53.252;10.390;2022-11-15T13:26:31;12.10;99.90
10885;DHT22;5495;53.252;10.390;2022-11-15T13:28:59;12.10;99.90
10885;DHT22;5495;53.252;10.390;2022-11-15T13:31:34;12.10;99.90
10885;DHT22;5495;53.252;10.390;2022-11-15T13:34:13;12.00;99.90
10885;DHT22;5495;53.252;10.390;2022-11-15T13:36:42;12.00;99.90
10885;DHT22;5495;53.252;10.390;2022-11-15T13:39:26;11.90;99.90
10885;DHT22;5495;53.252;10.390;2022-11-15T13:41:53;11.80;99.90
10885;DHT22;5495;53.252;10.390;2022-11-15T13:44:22;11.80;99.90
10885;DHT22;5495;53.252;10.390;2022-11-15T13:46:49;11.80;99.90
10885;DHT22;5495;53.252;10.390;2022-11-15T13:49:29;11.90;99.90
10885;DHT22;5495;53.252;10.390;2022-11-15T13:51:57;11.70;99.90
10885;DHT22;5495;53.252;10.390;2022-11-15T13:54:32;11.60;99.90
10885;DHT22;5495;53.252;10.390;2022-11-15T13:57:04;11.60;99.90
10885;DHT22;5495;53.252;10.390;2022-11-15T13:59:34;11.80;99.90
10885;DHT22;5495;53.252;10.390;2022-11-15T14:02:10;11.60;99.90
10885;DHT22;5495;53.252;10.390;2022-11-15T14:04:45;11.60;99.90
10885;DHT22;5495;53.252;10.390;2022-11-15T14:07:17;11.60;99.90
10885;DHT22;5495;53.252;10.390;2022-11-15T14:09:45;11.30;99.90
10885;DHT22;5495;53.252;10.390;2022-11-15T14:12:28;11.60;99.90
10885;DHT22;5495;53.252;10.390;2022-11-15T14:14:55;11.50;99.90
10885;DHT22;5495;53.252;10.390;2022-11-15T14:17:34;11.50;99.90
10885;DHT22;5495;53.252;10.390;2022-11-15T14:20:02;11.50;99.90
10885;DHT22;5495;53.252;10.390;2022-11-15T14:22:30;11.50;99.90
10885;DHT22;5495;53.252;10.390;2022-11-15T14:25:18;11.40;99.90
10885;DHT22;5495;53.252;10.390;2022-11-15T14:28:12;11.40;99.90
10885;DHT22;5495;53.252;10.390;2022-11-15T14:30:40;11.40;99.90
10885;DHT22;5495;53.252;10.390;2022-11-15T14:33:20;11.40;99.90
10885;DHT22;5495;53.252;10.390;2022-11-15T14:35:47;11.40;99.90
10885;DHT22;5495;53.252;10.390;2022-11-15T14:38:15;11.30;99.90
10885;DHT22;5495;53.252;10.390;2022-11-15T14:40:42;11.30;99.90
10885;DHT22;5495;53.252;10.390;2022-11-15T14:43:10;11.40;99.90
10885;DHT22;5495;53.252;10.390;2022-11-15T14:45:38;11.20;99.90
10885;DHT22;5495;53.252;10.390;2022-11-15T14:48:05;11.20;99.90
10885;DHT22;5495;53.252;10.390;2022-11-15T14:50:33;11.20;99.90
10885;DHT22;5495;53.252;10.390;2022-11-15T14:53:01;11.20;99.90
10885;DHT22;5495;53.252;10.390;2022-11-15T14:55:30;11.20;99.90
10885;DHT22;5495;53.252;10.390;2022-11-15T14:58:01;11.20;99.90
10885;DHT22;5495;53.252;10.390;2022-11-15T15:00:29;11.10;99.90
10885;DHT22;5495;53.252;10.390;2022-11-15T15:02:56;11.10;99.90
10885;DHT22;5495;53.252;10.390;2022-11-15T15:05:25;11.10;99.90
10885;DHT22;5495;53.252;10.390;2022-11-15T15:07:58;11.00;99.90
10885;DHT22;5495;53.252;10.390;2022-11-15T15:10:30;11.00;99.90
10885;DHT22;5495;53.252;10.390;2022-11-15T15:12:58;10.60;99.90
10885;DHT22;5495;53.252;10.390;2022-11-15T15:15:32;10.90;99.90
10885;DHT22;5495;53.252;10.390;2022-11-15T15:17:59;10.80;99.90
10885;DHT22;5495;53.252;10.390;2022-11-15T15:20:26;10.80;99.90
10885;DHT22;5495;53.252;10.390;2022-11-15T15:22:54;10.80;99.90
10885;DHT22;5495;53.252;10.390;2022-11-15T15:25:23;10.70;99.90
10885;DHT22;5495;53.252;10.390;2022-11-15T15:27:51;10.70;99.90
10885;DHT22;5495;53.252;10.390;2022-11-15T15:30:18;10.60;99.90
10885;DHT22;5495;53.252;10.390;2022-11-15T15:32:47;10.50;99.90
10885;DHT22;5495;53.252;10.390;2022-11-15T15:35:15;10.50;99.90
10885;DHT22;5495;53.252;10.390;2022-11-15T15:37:43;10.30;99.90
10885;DHT22;5495;53.252;10.390;2022-11-15T15:40:14;10.30;99.90
10885;DHT22;5495;53.252;10.390;2022-11-15T15:42:42;10.20;99.90
10885;DHT22;5495;53.252;10.390;2022-11-15T15:45:11;10.00;99.90
10885;DHT22;5495;53.252;10.390;2022-11-15T15:47:38;10.40;99.90
10885;DHT22;5495;53.252;10.390;2022-11-15T15:50:18;10.50;99.90
10885;DHT22;5495;53.252;10.390;2022-11-15T15:52:48;10.40;99.90
10885;DHT22;5495;53.252;10.390;2022-11-15T15:55:16;10.40;99.90
10885;DHT22;5495;53.252;10.390;2022-11-15T15:57:43;10.40;99.90
10885;DHT22;5495;53.252;10.390;2022-11-15T16:00:11;10.30;99.90
10885;DHT22;5495;53.252;10.390;2022-11-15T16:02:38;10.10;99.90
10885;DHT22;5495;53.252;10.390;2022-11-15T16:05:06;10.10;99.90
10885;DHT22;5495;53.252;10.390;2022-11-15T16:07:36;9.90;99.90
10885;DHT22;5495;53.252;10.390;2022-11-15T16:10:17;9.90;99.90
10885;DHT22;5495;53.252;10.390;2022-11-15T16:12:44;9.80;99.90
10885;DHT22;5495;53.252;10.390;2022-11-15T16:15:12;9.70;99.90
10885;DHT22;5495;53.252;10.390;2022-11-15T16:17:45;9.60;99.90
10885;DHT22;5495;53.252;10.390;2022-11-15T16:20:30;9.60;99.90
10885;DHT22;5495;53.252;10.390;2022-11-15T16:22:58;9.50;99.90
10885;DHT22;5495;53.252;10.390;2022-11-15T16:25:25;9.60;99.90
10885;DHT22;5495;53.252;10.390;2022-11-15T16:27:53;9.50;99.90
10885;DHT22;5495;53.252;10.390;2022-11-15T16:30:21;9.60;99.90